AIC321 VABB-VOML
Flight info
| Callsign | AIC321 |
|---|---|
| Flight time | 1h 2m |
| Altitude | 35000 |
| Route | VEVAK2A MABTA Q13 IKATI W17 MML |
| Aircraft | A321/M-SDE3FGHIRWY/LB1 |
Departure
| Time | 2026-05-04 16:56 |
|---|---|
| Airport | Chhatrapati Shivaji Maharaj International Airport (VABB) |
Arrival
| Time | 2026-05-04 17:59 |
|---|---|
| Airport | Mangaluru International Airport (VOML) |
| Time | Latitude | Longitude | Altitude | Speed | Heading |
|---|---|---|---|---|---|
| 2026-05-04 16:13 | 19.09313 | 72.87145 | 49 ft | 0 kts | 358° |
| 2026-05-04 16:46 | 19.09286 | 72.87146 | 49 ft | 2 kts | 359° |
| 2026-05-04 16:47 | 19.09242 | 72.87131 | 46 ft | 4 kts | 57° |
| 2026-05-04 16:47 | 19.09235 | 72.87125 | 47 ft | 4 kts | 89° |
| 2026-05-04 16:48 | 19.09236 | 72.87185 | 49 ft | 0 kts | 89° |
| 2026-05-04 16:51 | 19.09236 | 72.87190 | 49 ft | 4 kts | 89° |
| 2026-05-04 16:51 | 19.09226 | 72.87242 | 48 ft | 8 kts | 125° |
| 2026-05-04 16:51 | 19.09124 | 72.87263 | 49 ft | 11 kts | 179° |
| 2026-05-04 16:52 | 19.09053 | 72.87352 | 49 ft | 8 kts | 90° |
| 2026-05-04 16:52 | 19.09051 | 72.87405 | 49 ft | 6 kts | 89° |
| 2026-05-04 16:53 | 19.09053 | 72.87534 | 49 ft | 12 kts | 88° |
| 2026-05-04 16:53 | 19.09056 | 72.87752 | 49 ft | 8 kts | 89° |
| 2026-05-04 16:54 | 19.09043 | 72.87799 | 49 ft | 7 kts | 132° |
| 2026-05-04 16:55 | 19.08891 | 72.87775 | 48 ft | 4 kts | 238° |
| 2026-05-04 16:55 | 19.08884 | 72.87702 | 48 ft | 16 kts | 268° |
| 2026-05-04 16:56 | 19.08868 | 72.86593 | 49 ft | 130 kts | 269° |
| 2026-05-04 16:56 | 19.08872 | 72.82976 | 938 ft | 172 kts | 268° |
| 2026-05-04 16:57 | 19.08894 | 72.81714 | 1417 ft | 172 kts | 269° |
| 2026-05-04 16:57 | 19.08942 | 72.79142 | 2294 ft | 177 kts | 269° |
| 2026-05-04 16:58 | 19.08967 | 72.74908 | 3293 ft | 208 kts | 266° |
| 2026-05-04 16:58 | 19.08532 | 72.73404 | 3448 ft | 228 kts | 233° |
| 2026-05-04 16:59 | 19.05347 | 72.72541 | 3887 ft | 276 kts | 161° |
| 2026-05-04 17:00 | 18.98130 | 72.74853 | 5321 ft | 279 kts | 185° |
| 2026-05-04 17:00 | 18.92237 | 72.74679 | 6991 ft | 287 kts | 185° |
| 2026-05-04 17:01 | 18.88212 | 72.74571 | 8073 ft | 292 kts | 184° |
| 2026-05-04 17:01 | 18.84102 | 72.74462 | 8794 ft | 298 kts | 184° |
| 2026-05-04 17:02 | 18.79958 | 72.74347 | 8834 ft | 297 kts | 184° |
| 2026-05-04 17:02 | 18.75885 | 72.74929 | 9092 ft | 304 kts | 163° |
| 2026-05-04 17:03 | 18.73875 | 72.75649 | 9670 ft | 306 kts | 164° |
| 2026-05-04 17:03 | 18.71832 | 72.76357 | 10025 ft | 316 kts | 164° |
| 2026-05-04 17:03 | 18.67431 | 72.77866 | 10261 ft | 348 kts | 163° |
| 2026-05-04 17:04 | 18.62640 | 72.79523 | 10564 ft | 374 kts | 163° |
| 2026-05-04 17:04 | 18.57643 | 72.81264 | 11393 ft | 381 kts | 163° |
| 2026-05-04 17:05 | 18.52578 | 72.83026 | 12285 ft | 385 kts | 163° |
| 2026-05-04 17:05 | 18.47452 | 72.84804 | 13140 ft | 391 kts | 163° |
| 2026-05-04 17:06 | 18.42254 | 72.86601 | 13923 ft | 396 kts | 162° |
| 2026-05-04 17:06 | 18.39632 | 72.87508 | 14292 ft | 398 kts | 162° |
| 2026-05-04 17:07 | 18.34388 | 72.89323 | 15035 ft | 401 kts | 162° |
| 2026-05-04 17:07 | 18.32590 | 72.89945 | 15286 ft | 403 kts | 162° |
| 2026-05-04 17:07 | 18.29054 | 72.91161 | 15773 ft | 405 kts | 162° |
| 2026-05-04 17:07 | 18.26365 | 72.92085 | 16139 ft | 407 kts | 163° |
| 2026-05-04 17:08 | 18.23663 | 72.93015 | 16497 ft | 409 kts | 162° |
| 2026-05-04 17:08 | 18.18223 | 72.94896 | 17200 ft | 413 kts | 162° |
| 2026-05-04 17:08 | 18.15486 | 72.95846 | 17536 ft | 415 kts | 162° |
| 2026-05-04 17:09 | 18.12740 | 72.96798 | 17863 ft | 417 kts | 162° |
| 2026-05-04 17:09 | 18.09976 | 72.97754 | 18174 ft | 419 kts | 162° |
| 2026-05-04 17:09 | 18.07207 | 72.98733 | 18441 ft | 421 kts | 161° |
| 2026-05-04 17:10 | 18.01704 | 73.00905 | 18983 ft | 424 kts | 159° |
| 2026-05-04 17:10 | 17.93425 | 73.04364 | 19764 ft | 429 kts | 159° |
| 2026-05-04 17:11 | 17.90637 | 73.05508 | 20025 ft | 431 kts | 159° |
| 2026-05-04 17:11 | 17.87834 | 73.06647 | 20283 ft | 433 kts | 160° |
| 2026-05-04 17:11 | 17.82194 | 73.08920 | 20800 ft | 436 kts | 160° |
| 2026-05-04 17:12 | 17.79356 | 73.10063 | 21054 ft | 438 kts | 160° |
| 2026-05-04 17:12 | 17.73646 | 73.12359 | 21575 ft | 441 kts | 160° |
| 2026-05-04 17:13 | 17.65011 | 73.15842 | 22360 ft | 446 kts | 160° |
| 2026-05-04 17:14 | 17.56277 | 73.19370 | 23131 ft | 450 kts | 160° |
| 2026-05-04 17:14 | 17.53349 | 73.20549 | 23378 ft | 452 kts | 160° |
| 2026-05-04 17:14 | 17.47507 | 73.22894 | 23775 ft | 454 kts | 160° |
| 2026-05-04 17:15 | 17.44555 | 73.24077 | 23963 ft | 455 kts | 160° |
| 2026-05-04 17:15 | 17.38623 | 73.26458 | 24348 ft | 457 kts | 160° |
| 2026-05-04 17:16 | 17.32662 | 73.28851 | 24707 ft | 460 kts | 160° |
| 2026-05-04 17:16 | 17.23661 | 73.32466 | 25251 ft | 464 kts | 160° |
| 2026-05-04 17:17 | 17.20643 | 73.33676 | 25424 ft | 465 kts | 160° |
| 2026-05-04 17:17 | 17.11778 | 73.37837 | 25935 ft | 470 kts | 148° |
| 2026-05-04 17:18 | 17.09017 | 73.39679 | 26100 ft | 471 kts | 148° |
| 2026-05-04 17:18 | 17.03467 | 73.43356 | 26417 ft | 473 kts | 148° |
| 2026-05-04 17:19 | 16.97890 | 73.47043 | 26734 ft | 476 kts | 148° |
| 2026-05-04 17:19 | 16.92276 | 73.50746 | 27037 ft | 478 kts | 148° |
| 2026-05-04 17:20 | 16.86636 | 73.54476 | 27326 ft | 480 kts | 148° |
| 2026-05-04 17:20 | 16.80984 | 73.58120 | 27590 ft | 482 kts | 151° |
| 2026-05-04 17:20 | 16.78044 | 73.59809 | 27718 ft | 482 kts | 153° |
| 2026-05-04 17:21 | 16.72055 | 73.62976 | 27960 ft | 483 kts | 154° |
| 2026-05-04 17:21 | 16.66039 | 73.66124 | 28203 ft | 484 kts | 154° |
| 2026-05-04 17:22 | 16.63039 | 73.67734 | 28341 ft | 485 kts | 153° |
| 2026-05-04 17:22 | 16.60051 | 73.69365 | 28466 ft | 485 kts | 153° |
| 2026-05-04 17:23 | 16.51107 | 73.74309 | 28853 ft | 485 kts | 153° |
| 2026-05-04 17:23 | 16.48132 | 73.75945 | 28977 ft | 485 kts | 153° |
| 2026-05-04 17:23 | 16.42154 | 73.79214 | 29242 ft | 485 kts | 153° |
| 2026-05-04 17:24 | 16.39177 | 73.80835 | 29371 ft | 484 kts | 153° |
| 2026-05-04 17:24 | 16.30122 | 73.85499 | 29765 ft | 483 kts | 155° |
| 2026-05-04 17:25 | 16.27086 | 73.87003 | 29898 ft | 483 kts | 155° |
| 2026-05-04 17:25 | 16.21035 | 73.90016 | 30138 ft | 482 kts | 155° |
| 2026-05-04 17:26 | 16.15006 | 73.93059 | 30349 ft | 481 kts | 155° |
| 2026-05-04 17:26 | 16.05976 | 73.97629 | 30686 ft | 481 kts | 155° |
| 2026-05-04 17:27 | 15.99957 | 74.00664 | 30908 ft | 481 kts | 155° |
| 2026-05-04 17:27 | 15.93938 | 74.03692 | 31132 ft | 480 kts | 155° |
| 2026-05-04 17:28 | 15.87921 | 74.06716 | 31361 ft | 480 kts | 155° |
| 2026-05-04 17:29 | 15.78904 | 74.11244 | 31720 ft | 480 kts | 155° |
| 2026-05-04 17:29 | 15.69934 | 74.15734 | 32081 ft | 479 kts | 155° |
| 2026-05-04 17:30 | 15.60943 | 74.20256 | 32477 ft | 478 kts | 155° |
| 2026-05-04 17:31 | 15.54965 | 74.23259 | 32731 ft | 477 kts | 155° |
| 2026-05-04 17:31 | 15.46008 | 74.27733 | 33107 ft | 476 kts | 155° |
| 2026-05-04 17:32 | 15.40050 | 74.30711 | 33357 ft | 475 kts | 155° |
| 2026-05-04 17:33 | 15.31136 | 74.35162 | 33752 ft | 473 kts | 155° |
| 2026-05-04 17:33 | 15.28173 | 74.36645 | 33885 ft | 473 kts | 155° |
| 2026-05-04 17:34 | 15.19292 | 74.41079 | 34229 ft | 471 kts | 155° |
| 2026-05-04 17:34 | 15.16344 | 74.42548 | 34334 ft | 471 kts | 155° |
| 2026-05-04 17:35 | 15.07506 | 74.46958 | 34693 ft | 469 kts | 155° |
| 2026-05-04 17:35 | 15.01644 | 74.49909 | 34918 ft | 468 kts | 155° |
| 2026-05-04 17:36 | 14.95832 | 74.52847 | 34933 ft | 468 kts | 155° |
| 2026-05-04 17:36 | 14.89982 | 74.55795 | 34932 ft | 467 kts | 155° |
| 2026-05-04 17:37 | 14.84129 | 74.58731 | 34934 ft | 467 kts | 155° |
| 2026-05-04 17:37 | 14.78279 | 74.61660 | 34935 ft | 467 kts | 155° |
| 2026-05-04 17:38 | 14.72425 | 74.64593 | 34935 ft | 467 kts | 155° |
| 2026-05-04 17:38 | 14.66577 | 74.67522 | 34939 ft | 467 kts | 155° |
| 2026-05-04 17:39 | 14.57804 | 74.71915 | 34940 ft | 467 kts | 155° |
| 2026-05-04 17:39 | 14.52942 | 74.74344 | 34938 ft | 467 kts | 155° |
| 2026-05-04 17:40 | 14.46963 | 74.76898 | 34531 ft | 462 kts | 166° |
| 2026-05-04 17:40 | 14.43826 | 74.77645 | 32818 ft | 467 kts | 169° |
| 2026-05-04 17:40 | 14.39543 | 74.78526 | 30252 ft | 480 kts | 170° |
| 2026-05-04 17:41 | 14.36237 | 74.79176 | 28262 ft | 486 kts | 170° |
| 2026-05-04 17:41 | 14.32941 | 74.79821 | 26749 ft | 480 kts | 170° |
| 2026-05-04 17:41 | 14.29681 | 74.80472 | 25407 ft | 472 kts | 170° |
| 2026-05-04 17:41 | 14.26505 | 74.81124 | 24649 ft | 459 kts | 169° |
| 2026-05-04 17:42 | 14.23406 | 74.81771 | 24167 ft | 452 kts | 169° |
| 2026-05-04 17:42 | 14.21369 | 74.82199 | 23768 ft | 449 kts | 169° |
| 2026-05-04 17:42 | 14.18278 | 74.82849 | 23115 ft | 446 kts | 169° |
| 2026-05-04 17:42 | 14.15300 | 74.83475 | 22550 ft | 440 kts | 169° |
| 2026-05-04 17:43 | 14.12326 | 74.84096 | 22027 ft | 432 kts | 169° |
| 2026-05-04 17:43 | 14.09398 | 74.84701 | 21508 ft | 424 kts | 169° |
| 2026-05-04 17:43 | 14.06531 | 74.85290 | 21026 ft | 416 kts | 169° |
| 2026-05-04 17:43 | 14.03725 | 74.85867 | 20549 ft | 408 kts | 169° |
| 2026-05-04 17:44 | 14.00970 | 74.86434 | 20112 ft | 399 kts | 169° |
| 2026-05-04 17:44 | 13.98270 | 74.86991 | 19679 ft | 392 kts | 168° |
| 2026-05-04 17:44 | 13.95612 | 74.87543 | 19248 ft | 386 kts | 168° |
| 2026-05-04 17:44 | 13.92984 | 74.88091 | 18977 ft | 391 kts | 168° |
| 2026-05-04 17:45 | 13.90288 | 74.88653 | 18919 ft | 399 kts | 168° |
| 2026-05-04 17:45 | 13.87552 | 74.89220 | 18933 ft | 402 kts | 168° |
| 2026-05-04 17:45 | 13.84806 | 74.89784 | 18932 ft | 402 kts | 168° |
| 2026-05-04 17:45 | 13.82067 | 74.90345 | 18749 ft | 397 kts | 168° |
| 2026-05-04 17:46 | 13.79393 | 74.90893 | 17650 ft | 389 kts | 168° |
| 2026-05-04 17:46 | 13.76758 | 74.91435 | 16441 ft | 384 kts | 168° |
| 2026-05-04 17:46 | 13.74155 | 74.91973 | 15294 ft | 379 kts | 168° |
| 2026-05-04 17:46 | 13.71623 | 74.92498 | 14222 ft | 376 kts | 168° |
| 2026-05-04 17:47 | 13.69035 | 74.93036 | 13524 ft | 378 kts | 168° |
| 2026-05-04 17:47 | 13.66470 | 74.93567 | 12974 ft | 375 kts | 168° |
| 2026-05-04 17:47 | 13.63925 | 74.94092 | 12463 ft | 371 kts | 168° |
| 2026-05-04 17:47 | 13.61414 | 74.94608 | 11969 ft | 366 kts | 168° |
| 2026-05-04 17:48 | 13.58927 | 74.95121 | 11460 ft | 363 kts | 168° |
| 2026-05-04 17:48 | 13.56470 | 74.95631 | 10961 ft | 359 kts | 168° |
| 2026-05-04 17:48 | 13.54023 | 74.96137 | 10470 ft | 355 kts | 169° |
| 2026-05-04 17:48 | 13.51613 | 74.96633 | 9987 ft | 352 kts | 169° |
| 2026-05-04 17:49 | 13.49246 | 74.97120 | 9751 ft | 340 kts | 169° |
| 2026-05-04 17:49 | 13.46982 | 74.97587 | 9624 ft | 325 kts | 169° |
| 2026-05-04 17:49 | 13.44811 | 74.98033 | 9484 ft | 311 kts | 169° |
| 2026-05-04 17:49 | 13.42732 | 74.98463 | 9356 ft | 298 kts | 169° |
| 2026-05-04 17:50 | 13.40723 | 74.98877 | 9090 ft | 292 kts | 169° |
| 2026-05-04 17:50 | 13.38729 | 74.99286 | 9028 ft | 292 kts | 169° |
| 2026-05-04 17:50 | 13.36739 | 74.99691 | 8759 ft | 291 kts | 169° |
| 2026-05-04 17:50 | 13.34752 | 75.00097 | 8305 ft | 291 kts | 169° |
| 2026-05-04 17:51 | 13.32764 | 75.00504 | 7845 ft | 292 kts | 169° |
| 2026-05-04 17:51 | 13.30774 | 75.00914 | 7400 ft | 292 kts | 168° |
| 2026-05-04 17:51 | 13.28782 | 75.01325 | 6955 ft | 292 kts | 168° |
| 2026-05-04 17:51 | 13.26818 | 75.01730 | 6518 ft | 292 kts | 168° |
| 2026-05-04 17:52 | 13.24797 | 75.02144 | 6064 ft | 292 kts | 169° |
| 2026-05-04 17:52 | 13.22831 | 75.02549 | 5614 ft | 292 kts | 169° |
| 2026-05-04 17:52 | 13.20846 | 75.02960 | 5156 ft | 291 kts | 169° |
| 2026-05-04 17:52 | 13.18864 | 75.03372 | 4702 ft | 290 kts | 169° |
| 2026-05-04 17:53 | 13.16909 | 75.03777 | 4217 ft | 281 kts | 169° |
| 2026-05-04 17:53 | 13.15016 | 75.04166 | 3763 ft | 274 kts | 170° |
| 2026-05-04 17:53 | 13.13169 | 75.04542 | 3311 ft | 267 kts | 170° |
| 2026-05-04 17:53 | 13.11375 | 75.04910 | 2845 ft | 260 kts | 170° |
| 2026-05-04 17:54 | 13.09644 | 75.05359 | 2420 ft | 253 kts | 158° |
| 2026-05-04 17:54 | 13.08105 | 75.06114 | 2311 ft | 241 kts | 162° |
| 2026-05-04 17:54 | 13.06475 | 75.06169 | 2313 ft | 236 kts | 202° |
| 2026-05-04 17:54 | 13.05219 | 75.05177 | 2307 ft | 230 kts | 241° |
| 2026-05-04 17:55 | 13.04480 | 75.03717 | 2314 ft | 232 kts | 243° |
| 2026-05-04 17:55 | 13.03693 | 75.02323 | 2306 ft | 215 kts | 240° |
| 2026-05-04 17:55 | 13.02929 | 75.01054 | 2306 ft | 202 kts | 240° |
| 2026-05-04 17:55 | 13.02202 | 74.99850 | 2302 ft | 197 kts | 240° |
| 2026-05-04 17:56 | 13.01496 | 74.98681 | 2232 ft | 186 kts | 240° |
| 2026-05-04 17:56 | 13.00850 | 74.97611 | 2049 ft | 167 kts | 241° |
| 2026-05-04 17:56 | 13.00261 | 74.96635 | 1830 ft | 156 kts | 241° |
| 2026-05-04 17:56 | 12.99700 | 74.95703 | 1656 ft | 152 kts | 241° |
| 2026-05-04 17:57 | 12.99149 | 74.94789 | 1460 ft | 150 kts | 241° |
| 2026-05-04 17:57 | 12.98603 | 74.93883 | 1264 ft | 149 kts | 241° |
| 2026-05-04 17:57 | 12.98060 | 74.92982 | 1091 ft | 149 kts | 240° |
| 2026-05-04 17:57 | 12.97518 | 74.92083 | 918 ft | 148 kts | 240° |
| 2026-05-04 17:58 | 12.96981 | 74.91182 | 731 ft | 147 kts | 241° |
| 2026-05-04 17:58 | 12.96436 | 74.90287 | 516 ft | 147 kts | 239° |
| 2026-05-04 17:58 | 12.95900 | 74.89393 | 327 ft | 145 kts | 239° |
| 2026-05-04 17:58 | 12.95451 | 74.88652 | 321 ft | 96 kts | 238° |
| 2026-05-04 17:59 | 12.95204 | 74.88244 | 323 ft | 24 kts | 238° |
| 2026-05-04 17:59 | 12.95125 | 74.88114 | 324 ft | 21 kts | 238° |
| 2026-05-04 17:59 | 12.94965 | 74.87849 | 323 ft | 25 kts | 238° |
| 2026-05-04 18:00 | 12.94878 | 74.87694 | 322 ft | 22 kts | 255° |
| 2026-05-04 18:00 | 12.94919 | 74.87635 | 323 ft | 7 kts | 336° |
| 2026-05-04 18:00 | 12.94978 | 74.87598 | 324 ft | 14 kts | 327° |
| 2026-05-04 18:00 | 12.95021 | 74.87529 | 324 ft | 12 kts | 256° |
| 2026-05-04 18:01 | 12.94983 | 74.87461 | 324 ft | 10 kts | 237° |
| 2026-05-04 18:01 | 12.94946 | 74.87400 | 323 ft | 10 kts | 238° |
| 2026-05-04 18:01 | 12.94912 | 74.87345 | 324 ft | 9 kts | 238° |
| 2026-05-04 18:02 | 12.94940 | 74.87304 | 324 ft | 0 kts | 341° |
| 2026-05-04 18:02 | 12.94944 | 74.87302 | 324 ft | 2 kts | 339° |
| 2026-05-04 18:02 | 12.94954 | 74.87298 | 324 ft | 0 kts | 340° |
| 2026-05-04 18:46 | 12.98793 | 74.94198 | 1377 ft | 149 kts | 241° |
| 2026-05-04 18:47 | 12.98250 | 74.93298 | 1183 ft | 149 kts | 239° |
| 2026-05-04 18:47 | 12.97708 | 74.92399 | 992 ft | 148 kts | 240° |
| 2026-05-04 18:47 | 12.97168 | 74.91498 | 803 ft | 148 kts | 240° |
| 2026-05-04 18:47 | 12.96627 | 74.90602 | 586 ft | 149 kts | 239° |
| 2026-05-04 18:48 | 12.96087 | 74.89705 | 376 ft | 147 kts | 240° |
| 2026-05-04 18:48 | 12.95582 | 74.88867 | 322 ft | 116 kts | 237° |
| 2026-05-04 18:48 | 12.97225 | 74.91593 | 826 ft | 148 kts | 240° |
| 2026-05-04 18:48 | 12.96683 | 74.90695 | 612 ft | 149 kts | 239° |
| 2026-05-04 18:49 | 12.96143 | 74.89799 | 393 ft | 148 kts | 240° |
| 2026-05-04 18:49 | 12.95629 | 74.88941 | 322 ft | 122 kts | 237° |
| 2026-05-04 18:49 | 12.95282 | 74.88371 | 323 ft | 70 kts | 238° |
| 2026-05-04 18:49 | 12.97187 | 74.91530 | 810 ft | 146 kts | 240° |
| 2026-05-04 18:50 | 12.96770 | 74.90837 | 648 ft | 148 kts | 239° |
| 2026-05-04 18:50 | 12.96229 | 74.89943 | 417 ft | 147 kts | 239° |
| 2026-05-04 18:50 | 12.95706 | 74.89064 | 323 ft | 133 kts | 237° |
| 2026-05-04 18:50 | 12.95325 | 74.88442 | 323 ft | 77 kts | 238° |
| 2026-05-04 18:51 | 12.95173 | 74.88192 | 325 ft | 21 kts | 238° |
| 2026-05-04 18:51 | 12.95094 | 74.88062 | 324 ft | 21 kts | 239° |
| 2026-05-04 18:51 | 12.95017 | 74.87935 | 324 ft | 22 kts | 238° |
| 2026-05-04 18:51 | 12.94928 | 74.87786 | 322 ft | 27 kts | 238° |
| 2026-05-04 18:52 | 12.94891 | 74.87648 | 321 ft | 10 kts | 309° |
| 2026-05-04 18:52 | 12.94938 | 74.87624 | 323 ft | 7 kts | 330° |
| 2026-05-04 18:52 | 12.94977 | 74.87601 | 324 ft | 6 kts | 330° |
| 2026-05-04 18:52 | 12.95008 | 74.87583 | 324 ft | 5 kts | 330° |
| 2026-05-04 18:53 | 12.95032 | 74.87569 | 323 ft | 3 kts | 330° |
| 2026-05-04 18:53 | 12.95040 | 74.87564 | 324 ft | 3 kts | 330° |